Time;durP1;ratioP1;P1;durP2;ratioP2;P2;SDS_P1;SDS_P2;PMS_P1;PMS_P2;Temp;Humidity;BMP_temperature;BMP_pressure;BME280_temperature;BME280_humidity;BME280_pressure;Samples;Min_cycle;Max_cycle;Signal;HPM_P1;HPM_P2
2022/10/18 00:02:26;;;;;;;8.95;5.35;;;;;;;5.79;93.63;98576.31;5024594;28;20080;-58
2022/10/18 00:04:52;;;;;;;9.38;4.60;;;;;;;4.82;92.02;98418.13;5024247;28;20052;-59
2022/10/18 00:07:19;;;;;;;11.25;5.32;;;;;;;5.51;91.46;98558.97;5022698;28;20077;-59
2022/10/18 00:09:45;;;;;;;8.98;5.15;;;;;;;5.75;92.23;98602.81;5024334;28;20061;-60
2022/10/18 00:12:12;;;;;;;8.48;5.20;;;;;;;5.69;91.54;98599.31;5024005;28;20092;-59
2022/10/18 00:14:39;;;;;;;10.35;5.15;;;;;;;4.78;92.04;98444.53;5025214;28;20085;-59
2022/10/18 00:17:05;;;;;;;9.50;5.05;;;;;;;5.68;93.14;98591.38;5026689;28;20046;-59
2022/10/18 00:19:32;;;;;;;12.15;5.75;;;;;;;5.23;92.62;98587.41;5026878;28;20080;-60
2022/10/18 00:21:59;;;;;;;11.68;5.65;;;;;;;5.26;93.09;98588.78;5026452;28;20140;-59
2022/10/18 00:24:25;;;;;;;11.25;5.68;;;;;;;5.24;93.70;98594.56;5027867;28;20133;-61
2022/10/18 00:26:52;;;;;;;10.65;5.90;;;;;;;5.01;94.04;98542.47;5026945;28;20080;-60
2022/10/18 00:29:18;;;;;;;8.45;5.15;;;;;;;5.11;95.66;98553.28;5026828;28;20176;-58
2022/10/18 00:31:45;;;;;;;7.75;5.40;;;;;;;5.42;95.73;98587.44;5026643;28;20141;-59
2022/10/18 00:34:14;;;;;;;9.65;5.38;;;;;;;5.07;96.57;98533.03;5026325;28;20332;-59
2022/10/18 00:36:42;;;;;;;13.70;4.97;;;;;;;5.38;95.89;98583.63;5026463;28;20093;-59
2022/10/18 00:39:16;;;;;;;9.73;5.20;;;;;;;5.39;96.84;98572.34;5026507;28;20054;-60
2022/10/18 00:41:43;;;;;;;8.57;4.90;;;;;;;5.50;96.26;98568.31;5026216;28;20143;-59
2022/10/18 00:44:10;;;;;;;8.10;4.28;;;;;;;5.48;96.19;98564.22;5027314;28;20061;-58
2022/10/18 00:46:42;;;;;;;7.05;4.13;;;;;;;5.48;96.93;98573.31;5027419;28;20143;-59
2022/10/18 00:49:17;;;;;;;9.45;4.88;;;;;;;5.43;95.77;98562.38;5027863;28;20057;-60
2022/10/18 00:51:59;;;;;;;11.15;5.13;;;;;;;4.90;95.34;98486.09;5027519;28;20077;-59
2022/10/18 00:54:28;;;;;;;10.55;5.93;;;;;;;5.38;95.29;98567.13;5026845;28;20147;-59
2022/10/18 00:56:55;;;;;;;12.13;5.63;;;;;;;5.16;95.97;98534.00;5025897;28;20088;-59
2022/10/18 00:59:23;;;;;;;14.77;6.20;;;;;;;5.19;94.87;98504.00;5026901;28;20049;-60
2022/10/18 01:01:50;;;;;;;13.07;6.68;;;;;;;5.48;94.89;98559.56;5025600;28;20544;-58
2022/10/18 01:04:18;;;;;;;15.65;6.70;;;;;;;5.46;94.55;98558.22;5027485;28;20108;-59
2022/10/18 01:06:58;;;;;;;11.90;6.45;;;;;;;5.52;95.19;98555.09;5026023;28;21081;-59
2022/10/18 01:09:40;;;;;;;11.93;5.75;;;;;;;5.32;95.05;98511.47;5025742;28;20566;-59
2022/10/18 01:12:52;;;;;;;10.70;5.25;;;;;;;5.49;94.36;98555.69;5027036;28;20085;-59
2022/10/18 01:15:21;;;;;;;9.48;5.70;;;;;;;5.39;93.74;98560.56;5026908;28;20140;-60
2022/10/18 01:18:04;;;;;;;11.02;6.47;;;;;;;5.11;93.95;98553.28;5027210;28;20085;-58
2022/10/18 01:20:58;;;;;;;9.88;4.65;;;;;;;5.53;94.86;98551.22;5025089;28;20144;-59
2022/10/18 01:23:58;;;;;;;10.48;5.78;;;;;;;5.50;95.50;98540.03;5026899;28;20110;-59
2022/10/18 01:26:51;;;;;;;7.75;4.75;;;;;;;5.43;95.78;98550.56;5025686;28;20128;-58
2022/10/18 01:29:46;;;;;;;10.10;4.82;;;;;;;5.41;96.10;98539.06;5025510;28;20057;-61
2022/10/18 01:32:18;;;;;;;7.45;4.65;;;;;;;5.48;95.44;98534.00;5026520;28;20138;-58
2022/10/18 01:34:47;;;;;;;11.73;5.10;;;;;;;5.17;95.02;98497.19;5026427;28;20168;-59
2022/10/18 01:37:18;;;;;;;12.48;5.45;;;;;;;4.72;95.23;98467.69;5024963;28;20505;-58
2022/10/18 01:39:47;;;;;;;9.68;4.50;;;;;;;4.96;94.10;98468.41;5026581;28;20053;-58
2022/10/18 01:42:19;;;;;;;10.50;5.40;;;;;;;4.61;93.93;98429.44;5025200;28;20160;-59
2022/10/18 01:44:47;;;;;;;13.82;6.65;;;;;;;4.76;93.30;98435.81;5043470;28;20119;-59
2022/10/18 01:47:15;;;;;;;12.30;5.93;;;;;;;5.35;92.89;98526.53;5044599;28;20463;-58
2022/10/18 01:49:42;;;;;;;13.15;6.22;;;;;;;4.77;93.26;98431.94;5046446;28;20057;-59
2022/10/18 01:52:13;;;;;;;14.23;6.38;;;;;;;5.37;92.81;98524.31;5046110;28;20080;-60
2022/10/18 01:54:45;;;;;;;13.10;6.85;;;;;;;5.00;93.77;98469.44;5045662;28;20052;-60
2022/10/18 01:57:35;;;;;;;18.20;8.48;;;;;;;5.40;94.24;98523.69;5044340;28;20585;-59
2022/10/18 02:00:11;;;;;;;10.95;6.03;;;;;;;5.33;92.85;98518.59;5044720;28;20148;-59
2022/10/18 02:03:04;;;;;;;9.75;5.93;;;;;;;5.15;93.64;98516.72;5044737;28;20513;-59
2022/10/18 02:06:02;;;;;;;9.93;5.38;;;;;;;5.16;93.47;98512.00;5044848;28;20145;-59
2022/10/18 02:08:42;;;;;;;17.88;5.18;;;;;;;5.07;94.23;98516.56;5046268;28;20518;-59
2022/10/18 02:11:12;;;;;;;12.63;6.13;;;;;;;5.02;95.32;98519.38;5045746;28;20528;-59
2022/10/18 02:13:48;;;;;;;11.50;5.57;;;;;;;5.11;94.83;98521.16;5045974;28;20135;-59
2022/10/18 02:16:47;;;;;;;11.23;5.93;;;;;;;5.10;96.54;98518.72;5045799;28;20094;-58
2022/10/18 02:19:24;;;;;;;10.75;5.32;;;;;;;4.81;95.96;98460.41;5045592;28;20126;-59
2022/10/18 02:21:53;;;;;;;8.02;4.78;;;;;;;4.08;96.70;98353.97;5045669;28;20950;-59
2022/10/18 02:24:22;;;;;;;9.70;5.03;;;;;;;5.17;96.18;98513.66;5044583;28;20142;-58
2022/10/18 02:26:49;;;;;;;8.57;5.30;;;;;;;4.47;96.67;98395.63;5044127;28;20167;-58
2022/10/18 02:29:16;;;;;;;11.25;5.57;;;;;;;5.14;96.79;98525.25;5044169;28;20223;-59
2022/10/18 02:31:45;;;;;;;15.73;5.35;;;;;;;5.16;97.80;98507.34;5043929;28;20064;-59
2022/10/18 02:34:17;;;;;;;8.68;5.05;;;;;;;5.25;97.03;98510.25;5043630;28;20194;-60
2022/10/18 02:36:51;;;;;;;10.05;4.85;;;;;;;5.27;96.89;98513.47;5045142;28;20053;-58
2022/10/18 02:39:23;;;;;;;10.50;4.97;;;;;;;2.59;96.50;98087.44;5042580;28;20041;-59
2022/10/18 02:41:53;;;;;;;11.30;6.07;;;;;;;4.76;96.23;98463.25;5043672;28;20141;-59
2022/10/18 02:44:19;;;;;;;11.80;6.65;;;;;;;5.04;96.71;98511.66;5045126;28;20080;-59
2022/10/18 02:46:46;;;;;;;11.73;6.75;;;;;;;3.30;96.00;98265.22;5043810;28;20060;-61
2022/10/18 02:49:13;;;;;;;12.95;7.60;;;;;;;5.01;95.72;98504.03;5045029;28;20477;-60
2022/10/18 02:51:40;;;;;;;15.52;6.90;;;;;;;4.86;96.26;98527.03;5045022;28;20149;-59
2022/10/18 02:54:07;;;;;;;9.70;5.68;;;;;;;4.93;96.41;98523.94;5044963;28;20132;-59
2022/10/18 02:56:34;;;;;;;13.60;7.10;;;;;;;4.76;95.77;98518.16;5044992;28;20134;-58
2022/10/18 02:59:02;;;;;;;10.75;7.18;;;;;;;4.21;94.46;98432.78;5045217;28;20091;-58
2022/10/18 03:01:29;;;;;;;18.90;7.70;;;;;;;4.66;92.05;98514.41;5044807;28;20444;-58
2022/10/18 03:03:56;;;;;;;15.93;7.57;;;;;;;4.54;92.03;98532.44;5043435;28;20102;-58
2022/10/18 03:06:23;;;;;;;14.00;8.30;;;;;;;4.47;91.26;98529.25;5044379;28;20076;-58
2022/10/18 03:08:49;;;;;;;20.25;8.25;;;;;;;1.86;91.23;98139.94;5044914;28;20072;-59
2022/10/18 03:11:16;;;;;;;15.02;7.38;;;;;;;3.81;91.54;98474.41;5043131;28;20060;-59
2022/10/18 03:13:43;;;;;;;16.98;7.65;;;;;;;4.03;92.01;98537.72;5043208;28;20110;-58
2022/10/18 03:16:10;;;;;;;14.85;7.93;;;;;;;3.49;92.04;98455.06;5042574;28;20084;-58
2022/10/18 03:18:37;;;;;;;17.20;8.77;;;;;;;3.76;93.61;98493.63;5044163;28;20049;-60
2022/10/18 03:21:05;;;;;;;13.65;8.13;;;;;;;3.71;93.62;98490.97;5044230;28;20136;-58
2022/10/18 03:23:32;;;;;;;15.32;7.88;;;;;;;3.79;93.58;98493.09;5044711;28;20049;-58
2022/10/18 03:25:59;;;;;;;13.90;6.75;;;;;;;4.15;93.84;98556.53;5043738;28;20348;-57
2022/10/18 03:28:26;;;;;;;17.33;7.57;;;;;;;3.79;94.16;98498.56;5043219;28;20056;-59
2022/10/18 03:30:58;;;;;;;14.35;7.95;;;;;;;4.32;96.74;98552.19;5044287;28;20061;-58
2022/10/18 03:33:24;;;;;;;13.90;7.32;;;;;;;4.45;97.33;98545.19;5044304;28;20114;-57
2022/10/18 03:35:51;;;;;;;14.73;6.93;;;;;;;4.17;98.50;98489.31;5033744;28;20144;-57
2022/10/18 03:38:17;;;;;;;13.15;5.75;;;;;;;4.57;97.99;98527.19;5044092;28;20088;-57
2022/10/18 03:40:44;;;;;;;11.70;6.25;;;;;;;4.48;98.20;98517.16;5043859;28;20102;-59
2022/10/18 03:43:10;;;;;;;15.90;7.03;;;;;;;3.96;96.02;98452.31;5044362;28;20077;-58
2022/10/18 03:45:37;;;;;;;10.98;6.18;;;;;;;3.52;96.92;98394.22;5043911;28;20096;-60
2022/10/18 03:48:04;;;;;;;9.18;5.95;;;;;;;4.45;98.75;98524.06;5044229;28;20045;-59
2022/10/18 03:50:31;;;;;;;13.95;6.55;;;;;;;4.16;99.53;98493.16;5042194;28;20064;-59
2022/10/18 03:52:57;;;;;;;13.00;6.45;;;;;;;3.54;99.83;98397.44;5042902;28;20076;-62
2022/10/18 03:55:24;;;;;;;9.00;5.40;;;;;;;4.47;100.00;98527.31;5042378;28;20134;-58
2022/10/18 03:57:51;;;;;;;10.82;5.57;;;;;;;4.49;99.76;98530.56;5042905;28;20064;-60
2022/10/18 04:00:17;;;;;;;11.93;6.88;;;;;;;4.36;98.92;98536.78;5043768;28;20106;-58
2022/10/18 04:02:44;;;;;;;13.02;6.90;;;;;;;3.96;98.71;98476.97;5042539;28;20596;-60
2022/10/18 04:05:11;;;;;;;14.57;7.28;;;;;;;4.43;99.28;98531.75;5044104;28;20538;-58
2022/10/18 04:07:38;;;;;;;15.15;7.18;;;;;;;4.39;97.69;98555.38;5044085;28;20049;-60
2022/10/18 04:10:05;;;;;;;14.70;8.32;;;;;;;3.18;95.92;98377.06;5043923;28;20751;-59
2022/10/18 04:12:32;;;;;;;16.17;8.68;;;;;;;4.18;95.61;98540.31;5042156;28;20539;-58
2022/10/18 04:14:59;;;;;;;14.98;7.13;;;;;;;3.85;95.15;98497.38;5042160;28;20045;-59
2022/10/18 04:17:26;;;;;;;20.58;8.30;;;;;;;4.01;95.41;98531.75;5041946;28;20519;-59
2022/10/18 04:19:52;;;;;;;14.45;7.32;;;;;;;3.49;95.66;98443.28;5042581;28;20558;-58
2022/10/18 04:22:19;;;;;;;15.55;7.20;;;;;;;3.77;97.19;98478.84;5042078;28;20520;-59
2022/10/18 04:24:45;;;;;;;14.02;6.78;;;;;;;4.20;97.77;98538.09;5026391;28;20099;-58
2022/10/18 04:27:12;;;;;;;10.68;6.13;;;;;;;3.78;97.86;98458.53;5063079;28;20584;-58
2022/10/18 04:29:39;;;;;;;13.85;8.02;;;;;;;4.31;98.44;98545.09;5063630;28;20053;-59
2022/10/18 04:32:05;;;;;;;14.27;7.65;;;;;;;4.39;98.61;98535.41;5061883;28;20503;-60
2022/10/18 04:34:32;;;;;;;11.40;6.53;;;;;;;4.44;98.71;98527.91;5063441;28;20523;-58
2022/10/18 04:36:59;;;;;;;26.13;11.93;;;;;;;3.87;99.47;98434.84;5061892;28;20116;-60
2022/10/18 04:39:25;;;;;;;30.90;11.35;;;;;;;4.13;100.00;98477.31;5063802;28;20044;-58
2022/10/18 04:41:52;;;;;;;31.17;10.95;;;;;;;4.44;100.00;98538.88;5063254;28;20063;-59
2022/10/18 04:44:18;;;;;;;18.13;8.35;;;;;;;4.35;100.00;98491.28;5061689;28;20496;-58
2022/10/18 04:46:45;;;;;;;14.45;6.78;;;;;;;4.22;100.00;98486.50;5063028;28;20052;-60
2022/10/18 04:49:12;;;;;;;12.43;6.78;;;;;;;4.27;100.00;98480.94;5063941;28;20148;-58
2022/10/18 04:51:39;;;;;;;16.00;6.63;;;;;;;4.40;99.86;98480.22;5045653;28;20045;-58
2022/10/18 04:54:05;;;;;;;12.48;6.57;;;;;;;4.72;100.00;98533.56;5043773;28;20053;-58
2022/10/18 04:56:32;;;;;;;19.17;8.23;;;;;;;4.65;98.83;98523.78;5061040;28;20168;-60
2022/10/18 04:58:58;;;;;;;15.93;7.65;;;;;;;4.55;94.50;98534.88;5063381;28;20071;-58
2022/10/18 05:01:25;;;;;;;23.67;8.73;;;;;;;4.44;94.16;98536.13;5063990;28;20137;-60
2022/10/18 05:03:53;;;;;;;17.35;8.23;;;;;;;4.34;91.95;98539.03;5067037;28;20143;-58
2022/10/18 05:06:20;;;;;;;20.95;6.65;;;;;;;3.97;90.53;98538.91;5067033;28;20135;-60
2022/10/18 05:08:48;;;;;;;23.33;6.97;;;;;;;4.13;91.27;98532.16;5065414;28;20130;-59
2022/10/18 05:11:14;;;;;;;35.75;7.97;;;;;;;4.21;90.62;98539.72;5066616;28;20127;-58
2022/10/18 05:13:41;;;;;;;23.52;7.32;;;;;;;4.30;90.30;98537.97;5064913;28;20078;-60
2022/10/18 05:16:12;;;;;;;27.73;6.88;;;;;;;4.28;90.25;98540.16;5066505;28;20068;-58
2022/10/18 05:18:39;;;;;;;25.17;8.10;;;;;;;3.75;90.43;98409.81;5066850;28;20122;-58
2022/10/18 05:21:05;;;;;;;20.48;6.38;;;;;;;4.18;88.15;98534.81;5066391;28;20148;-59
2022/10/18 05:23:32;;;;;;;18.27;7.72;;;;;;;3.94;91.47;98533.19;5066572;28;20435;-58
2022/10/18 05:26:05;;;;;;;18.25;8.70;;;;;;;4.07;89.55;98541.53;5065122;28;20056;-59
2022/10/18 05:28:32;;;;;;;25.10;10.07;;;;;;;2.93;89.46;98331.63;5064975;28;20108;-58
2022/10/18 05:31:07;;;;;;;19.25;9.45;;;;;;;4.52;89.80;98535.47;5065984;28;20044;-60
2022/10/18 05:33:34;;;;;;;25.23;13.23;;;;;;;4.73;89.09;98547.00;5066620;28;20083;-58
2022/10/18 05:36:00;;;;;;;25.02;13.65;;;;;;;5.00;89.15;98538.06;5065816;28;20088;-59
2022/10/18 05:38:29;;;;;;;23.13;10.48;;;;;;;5.10;88.08;98548.91;5066513;28;20053;-59
2022/10/18 05:40:57;;;;;;;17.73;10.38;;;;;;;4.66;88.95;98492.47;5065928;28;20045;-58
2022/10/18 05:43:27;;;;;;;20.55;10.38;;;;;;;4.56;90.46;98525.56;5065164;28;20155;-58
2022/10/18 05:45:54;;;;;;;18.10;9.60;;;;;;;5.09;91.87;98534.34;5066108;28;20153;-60
2022/10/18 05:48:21;;;;;;;15.80;9.35;;;;;;;5.05;92.14;98472.09;5066459;28;20451;-59
2022/10/18 05:50:48;;;;;;;12.00;7.57;;;;;;;5.10;91.80;98411.59;5066417;28;20095;-59
2022/10/18 05:53:14;;;;;;;31.77;16.13;;;;;;;6.05;89.11;98531.56;5064837;28;20049;-60
2022/10/18 05:56:02;;;;;;;11.85;8.05;;;;;;;5.43;89.26;98410.44;5052441;28;20053;-60
2022/10/18 05:58:28;;;;;;;18.88;9.27;;;;;;;6.26;88.43;98482.47;5030798;28;20132;-57
2022/10/18 06:00:58;;;;;;;19.20;9.27;;;;;;;6.52;88.75;98474.47;5036056;28;20124;-62
2022/10/18 06:03:26;;;;;;;16.15;9.02;;;;;;;6.55;87.74;98441.66;5039229;28;20056;-60
2022/10/18 06:05:59;;;;;;;15.60;8.95;;;;;;;6.38;87.69;98380.13;5038459;28;20219;-64
2022/10/18 06:08:26;;;;;;;16.97;10.03;;;;;;;7.38;87.89;98499.66;5039922;28;20115;-61
2022/10/18 06:10:52;;;;;;;17.70;8.85;;;;;;;7.07;85.60;98409.81;5029018;28;20502;-60
2022/10/18 06:13:19;;;;;;;22.45;9.95;;;;;;;7.99;85.11;98532.00;5024683;28;20600;-62
2022/10/18 06:15:45;;;;;;;16.60;9.55;;;;;;;8.19;84.09;98531.44;5024011;28;20477;-62
2022/10/18 06:18:12;;;;;;;17.58;9.48;;;;;;;8.43;84.01;98525.53;5028390;28;20053;-62
2022/10/18 06:20:38;;;;;;;17.58;8.15;;;;;;;8.74;83.87;98526.28;5025540;28;20092;-59
2022/10/18 06:23:05;;;;;;;16.02;8.82;;;;;;;8.60;80.87;98509.03;5025861;28;20077;-59
2022/10/18 06:25:32;;;;;;;15.25;9.32;;;;;;;9.16;80.34;98523.56;5025530;28;20081;-59
2022/10/18 06:27:58;;;;;;;12.38;8.27;;;;;;;8.94;79.15;98471.19;5026497;28;20502;-67
2022/10/18 06:30:25;;;;;;;13.32;8.35;;;;;;;9.57;77.53;98506.44;5026819;28;20099;-60
2022/10/18 06:32:52;;;;;;;13.32;7.45;;;;;;;9.73;77.25;98499.25;5044421;28;20144;-60
2022/10/18 06:35:18;;;;;;;14.10;6.95;;;;;;;9.16;76.37;98390.88;5041593;28;20129;-62
2022/10/18 06:37:45;;;;;;;11.60;5.65;;;;;;;10.11;75.98;98511.22;5025348;28;20123;-64
2022/10/18 06:40:11;;;;;;;9.93;5.30;;;;;;;10.28;75.56;98516.69;5025404;28;20049;-62
2022/10/18 06:42:39;;;;;;;8.93;4.70;;;;;;;9.54;75.45;98363.25;5025437;28;20092;-60
2022/10/18 06:45:06;;;;;;;11.02;5.22;;;;;;;10.44;74.78;98531.59;5024748;28;20529;-61
2022/10/18 06:47:33;;;;;;;7.65;4.57;;;;;;;10.85;74.35;98519.78;5040531;28;20405;-65
2022/10/18 06:49:59;;;;;;;7.45;4.82;;;;;;;10.77;73.31;98505.97;5045034;28;20052;-63
2022/10/18 06:52:26;;;;;;;9.05;5.07;;;;;;;11.02;73.81;98513.31;5044973;28;20236;-62
2022/10/18 06:54:52;;;;;;;10.10;5.20;;;;;;;10.96;73.28;98479.44;5034972;28;20156;-59
2022/10/18 06:57:20;;;;;;;8.07;5.15;;;;;;;11.42;72.76;98501.41;5034581;28;20096;-62
2022/10/18 06:59:48;;;;;;;7.07;4.88;;;;;;;11.03;71.58;98407.63;5025022;28;20081;-64
2022/10/18 07:02:16;;;;;;;10.50;6.00;;;;;;;11.85;70.91;98487.13;5024764;28;20103;-61
2022/10/18 07:04:43;;;;;;;11.15;5.80;;;;;;;9.40;69.62;98047.41;5022799;28;20061;-62
2022/10/18 07:07:09;;;;;;;10.40;6.20;;;;;;;12.30;68.24;98493.44;5041430;28;20061;-62
2022/10/18 07:09:36;;;;;;;11.18;5.88;;;;;;;11.85;68.32;98378.81;5044751;28;20106;-66
2022/10/18 07:12:03;;;;;;;22.17;10.00;;;;;;;12.46;66.85;98458.22;5042776;28;20077;-64
2022/10/18 07:14:29;;;;;;;7.28;4.97;;;;;;;12.65;67.18;98461.22;5054286;28;20145;-62
2022/10/18 07:16:59;;;;;;;11.13;5.47;;;;;;;12.05;65.97;98359.28;5062678;28;20084;-59
2022/10/18 07:19:26;;;;;;;10.52;6.07;;;;;;;13.01;65.99;98475.09;5036201;28;20141;-64
2022/10/18 07:21:52;;;;;;;9.15;5.15;;;;;;;12.76;65.77;98428.19;5044299;28;20147;-65
2022/10/18 07:24:19;;;;;;;9.45;5.05;;;;;;;13.21;65.65;98474.13;5043868;28;20563;-64
2022/10/18 07:26:46;;;;;;;10.23;4.75;;;;;;;13.08;65.27;98441.94;5034449;28;20581;-62
2022/10/18 07:29:12;;;;;;;8.00;4.13;;;;;;;12.80;64.00;98363.19;5038540;28;20060;-60
2022/10/18 07:31:39;;;;;;;8.18;4.05;;;;;;;13.82;63.86;98471.06;5038118;28;21272;-60
2022/10/18 07:34:09;;;;;;;9.38;4.45;;;;;;;13.68;63.72;98416.63;5024612;28;20119;-62
2022/10/18 07:36:36;;;;;;;13.07;4.43;;;;;;;12.70;62.36;98274.72;5023633;28;20141;-66
2022/10/18 07:39:03;;;;;;;5.43;4.22;;;;;;;14.26;62.48;98459.53;5024050;28;20492;-61
2022/10/18 07:41:32;;;;;;;6.13;4.47;;;;;;;14.19;62.83;98458.53;5023786;28;20140;-60
2022/10/18 07:44:00;;;;;;;10.52;4.40;;;;;;;14.24;62.33;98449.91;5022835;28;20124;-63
2022/10/18 07:46:26;;;;;;;8.15;4.28;;;;;;;14.40;62.63;98451.53;5024264;28;20512;-59
2022/10/18 07:48:53;;;;;;;5.38;3.85;;;;;;;14.54;62.06;98437.13;5024980;28;20127;-60
2022/10/18 07:51:21;;;;;;;8.02;4.40;;;;;;;14.08;61.29;98334.84;5023414;28;20483;-66
2022/10/18 07:53:47;;;;;;;10.82;5.82;;;;;;;14.76;60.43;98439.25;5028750;28;20080;-60
2022/10/18 07:56:19;;;;;;;7.00;4.53;;;;;;;14.05;59.61;98263.13;5023039;28;20299;-59
2022/10/18 07:58:50;;;;;;;7.72;4.50;;;;;;;15.06;59.04;98392.88;5022352;28;20502;-60
2022/10/18 08:01:17;;;;;;;6.97;4.55;;;;;;;14.75;59.60;98331.63;5023011;28;20077;-63
2022/10/18 08:03:45;;;;;;;5.47;4.13;;;;;;;15.45;59.38;98427.22;5026785;28;20053;-60
2022/10/18 08:06:13;;;;;;;9.18;5.88;;;;;;;15.01;58.43;98342.94;5028648;28;20054;-62
2022/10/18 08:08:41;;;;;;;9.88;5.25;;;;;;;15.66;59.07;98411.69;5028390;28;20127;-64
2022/10/18 08:11:14;;;;;;;8.88;4.18;;;;;;;15.75;59.05;98408.66;5040806;28;20076;-62
2022/10/18 08:13:42;;;;;;;7.97;4.25;;;;;;;15.96;57.88;98404.28;5035577;28;20061;-60
2022/10/18 08:16:16;;;;;;;9.05;4.25;;;;;;;16.18;57.23;98408.22;5023895;28;20123;-61
2022/10/18 08:18:43;;;;;;;5.30;4.15;;;;;;;16.32;56.53;98403.69;5024408;28;20191;-61
2022/10/18 08:21:11;;;;;;;6.68;4.20;;;;;;;15.44;55.60;98230.94;5023584;28;20487;-61
2022/10/18 08:23:39;;;;;;;7.38;5.05;;;;;;;16.22;54.73;98351.19;5023476;28;20111;-60
2022/10/18 08:26:09;;;;;;;5.60;3.53;;;;;;;16.76;51.98;98397.56;5022255;28;20110;-59
2022/10/18 08:28:36;;;;;;;11.88;3.97;;;;;;;16.35;50.68;98352.59;5022770;28;20108;-61
2022/10/18 08:31:05;;;;;;;9.38;3.53;;;;;;;16.84;49.66;98382.50;5024158;28;20557;-60
2022/10/18 08:33:33;;;;;;;8.05;2.97;;;;;;;16.71;50.50;98386.72;5024244;28;20085;-60
2022/10/18 08:36:06;;;;;;;6.00;3.40;;;;;;;16.11;50.53;98283.09;5025273;28;20597;-62
2022/10/18 08:38:37;;;;;;;9.23;3.60;;;;;;;16.54;51.23;98376.88;5027426;28;20083;-60
2022/10/18 08:41:35;;;;;;;12.88;6.05;;;;;;;16.55;51.18;98326.13;5027422;28;20136;-59
2022/10/18 08:44:16;;;;;;;8.82;3.95;;;;;;;17.08;49.52;98376.44;5027914;28;20085;-60
2022/10/18 08:46:48;;;;;;;4.03;3.15;;;;;;;17.30;48.35;98372.69;5027043;28;20139;-60
2022/10/18 08:49:27;;;;;;;5.77;3.40;;;;;;;17.37;48.76;98351.16;5027428;28;20053;-59
2022/10/18 08:51:55;;;;;;;5.55;3.20;;;;;;;17.44;48.87;98362.50;5025839;28;20071;-59
2022/10/18 08:54:36;;;;;;;6.88;3.40;;;;;;;17.62;48.55;98359.91;5038089;28;20139;-61
2022/10/18 08:57:11;;;;;;;12.20;3.83;;;;;;;17.66;46.96;98336.31;5050655;28;20056;-59
2022/10/18 08:59:39;;;;;;;7.18;2.90;;;;;;;17.91;46.01;98342.97;5065435;28;20052;-61
2022/10/18 09:02:25;;;;;;;3.03;2.72;;;;;;;18.09;46.04;98338.31;5066705;28;20048;-60
2022/10/18 09:05:04;;;;;;;6.60;2.90;;;;;;;18.21;46.33;98345.59;5066831;28;20157;-60
2022/10/18 09:08:08;;;;;;;6.07;2.58;;;;;;;18.31;44.63;98344.06;5066789;28;20143;-60
2022/10/18 09:10:51;;;;;;;5.47;2.80;;;;;;;18.55;44.77;98335.88;5066285;28;20496;-60
2022/10/18 09:13:30;;;;;;;7.82;3.05;;;;;;;18.57;43.71;98329.88;5066529;28;20567;-59
2022/10/18 09:16:09;;;;;;;4.28;2.63;;;;;;;18.67;43.16;98317.91;5066571;28;20132;-59
2022/10/18 09:19:01;;;;;;;10.02;2.90;;;;;;;18.89;42.04;98320.41;5066790;28;20131;-59
2022/10/18 09:21:43;;;;;;;7.00;3.00;;;;;;;19.03;41.50;98305.66;5066738;28;20147;-60
2022/10/18 09:24:21;;;;;;;5.93;2.55;;;;;;;19.08;38.91;98317.28;5066867;28;20141;-60
2022/10/18 09:26:54;;;;;;;9.20;3.30;;;;;;;18.93;39.40;98318.44;5065263;28;20105;-61
2022/10/18 09:29:39;;;;;;;3.88;2.30;;;;;;;19.21;38.09;98310.13;5066538;28;20095;-61
2022/10/18 09:32:30;;;;;;;3.80;2.60;;;;;;;19.42;37.68;98304.59;5066755;28;20083;-61
2022/10/18 09:35:12;;;;;;;3.00;2.05;;;;;;;19.45;36.07;98298.19;5067362;28;20517;-61
2022/10/18 09:37:40;;;;;;;6.32;2.67;;;;;;;19.03;36.43;98247.44;5064992;28;20134;-60
2022/10/18 09:40:16;;;;;;;6.47;2.70;;;;;;;18.38;36.22;98151.38;5064772;28;20057;-60
2022/10/18 09:43:10;;;;;;;3.72;2.15;;;;;;;18.95;36.26;98290.75;5066188;28;20056;-63
2022/10/18 09:45:43;;;;;;;4.38;2.65;;;;;;;19.11;36.16;98271.56;5064638;28;20164;-61
2022/10/18 09:48:18;;;;;;;5.93;2.87;;;;;;;19.29;36.40;98289.31;5065727;28;20051;-61
2022/10/18 09:50:52;;;;;;;3.03;2.25;;;;;;;19.31;36.63;98256.00;5065519;28;20573;-60
2022/10/18 09:53:36;;;;;;;3.75;2.20;;;;;;;19.58;35.25;98266.88;5062619;28;20151;-62
2022/10/18 09:56:09;;;;;;;;;;;;;;;19.65;35.42;98275.34;5046586;28;20146;-61
2022/10/18 09:58:46;;;;;;;4.65;3.33;;;;;;;19.28;35.80;98270.81;5062631;28;20403;-61
2022/10/18 10:01:18;;;;;;;3.45;2.72;;;;;;;19.36;35.49;98255.59;5065597;28;20989;-60
2022/10/18 10:03:45;;;;;;;5.63;3.00;;;;;;;19.41;35.44;98266.44;5066009;28;20498;-60
2022/10/18 10:06:11;;;;;;;9.07;3.75;;;;;;;19.46;35.40;98249.19;5065698;28;20147;-62
2022/10/18 10:08:46;;;;;;;3.42;2.35;;;;;;;18.84;34.84;98104.59;5065770;28;20084;-62
2022/10/18 10:11:33;;;;;;;5.57;3.72;;;;;;;19.78;34.84;98231.53;5065278;28;20288;-62
2022/10/18 10:14:22;;;;;;;4.75;2.72;;;;;;;19.80;34.75;98196.19;5065658;28;20101;-63
2022/10/18 10:17:01;;;;;;;3.90;2.30;;;;;;;20.23;34.79;98225.09;5065428;28;20060;-61
2022/10/18 10:19:32;;;;;;;5.75;2.90;;;;;;;20.46;33.70;98219.81;5065238;28;20515;-62
2022/10/18 10:22:06;;;;;;;6.90;3.58;;;;;;;20.56;33.02;98205.72;5064808;28;20084;-61
2022/10/18 10:24:50;;;;;;;3.30;2.60;;;;;;;20.26;32.54;98151.94;5065710;28;20567;-60
2022/10/18 10:27:19;;;;;;;8.77;4.35;;;;;;;20.59;33.02;98195.63;5065321;28;20118;-60
2022/10/18 10:29:45;;;;;;;3.33;2.70;;;;;;;20.63;32.37;98194.41;5065133;28;20127;-60
2022/10/18 10:32:20;;;;;;;5.00;3.28;;;;;;;20.73;32.39;98192.75;5065393;28;20102;-60
2022/10/18 10:34:48;;;;;;;5.03;3.05;;;;;;;20.73;31.36;98192.75;5050210;28;20050;-60
2022/10/18 10:37:24;;;;;;;6.97;3.70;;;;;;;20.79;32.24;98179.84;5026729;28;20514;-60
2022/10/18 10:40:09;;;;;;;4.82;2.55;;;;;;;20.85;31.83;98178.19;5038915;28;20049;-64
2022/10/18 10:43:32;;;;;;;6.85;2.63;;;;;;;19.65;32.55;98117.88;5035959;28;20049;-60
2022/10/18 10:46:14;;;;;;;4.95;2.90;;;;;;;19.85;33.38;98158.41;5006283;28;20069;-65
2022/10/18 10:48:40;;;;;;;4.03;2.78;;;;;;;18.32;33.48;97865.97;5022301;28;20666;-59
2022/10/18 10:51:09;;;;;;;5.05;3.15;;;;;;;20.11;34.06;98087.59;4983960;28;20119;-61
2022/10/18 10:53:42;;;;;;;5.85;2.22;;;;;;;20.89;32.78;98151.63;5018797;28;20133;-67
2022/10/18 10:56:23;;;;;;;3.78;2.63;;;;;;;20.85;31.87;98141.56;5017481;28;20049;-63
2022/10/18 10:58:51;;;;;;;4.13;2.22;;;;;;;21.05;31.67;98139.91;5004547;28;20085;-59
2022/10/18 11:01:22;;;;;;;3.30;2.60;;;;;;;21.08;31.67;98139.06;5016758;28;20148;-62
2022/10/18 11:03:52;;;;;;;4.70;2.50;;;;;;;21.10;32.05;98133.81;5023707;28;20129;-66
2022/10/18 11:06:39;;;;;;;4.45;2.58;;;;;;;21.21;32.41;98134.53;5019470;28;20050;-60
2022/10/18 11:09:18;;;;;;;5.32;2.45;;;;;;;21.22;32.08;98110.78;5015026;28;20608;-58
2022/10/18 11:11:57;;;;;;;5.68;2.38;;;;;;;21.17;31.49;98083.03;5024501;28;20119;-62
2022/10/18 11:14:29;;;;;;;4.05;2.35;;;;;;;20.99;31.43;98034.47;5015448;28;20130;-64
2022/10/18 11:16:55;;;;;;;3.50;2.40;;;;;;;21.72;31.17;98102.69;5018744;28;20554;-61
2022/10/18 11:19:52;;;;;;;4.97;2.83;;;;;;;21.44;31.13;98053.00;5011246;28;20072;-62
2022/10/18 11:22:23;;;;;;;2.83;2.30;;;;;;;21.62;30.36;98059.25;5015035;28;20084;-62
2022/10/18 11:24:49;;;;;;;5.07;2.88;;;;;;;21.87;29.50;98075.94;5032233;28;20053;-62
2022/10/18 11:27:19;;;;;;;7.15;3.78;;;;;;;21.91;30.40;98071.88;5023167;28;20740;-60
2022/10/18 11:30:07;;;;;;;6.75;2.95;;;;;;;21.96;30.42;98071.41;5016797;28;20595;-60
2022/10/18 11:33:02;;;;;;;3.88;2.95;;;;;;;21.50;29.93;98061.81;5016623;28;20054;-61
2022/10/18 11:35:31;;;;;;;4.85;1.98;;;;;;;21.79;30.18;98063.94;5003834;28;20053;-58
2022/10/18 11:38:20;;;;;;;3.42;2.33;;;;;;;21.94;30.47;98093.59;5018618;28;20139;-61
2022/10/18 11:41:29;;;;;;;7.10;3.15;;;;;;;21.94;30.89;98054.09;5013726;28;20112;-64
2022/10/18 11:44:02;;;;;;;2.50;2.30;;;;;;;21.69;30.05;98019.69;5017212;28;20063;-59
2022/10/18 11:46:41;;;;;;;4.22;2.95;;;;;;;22.01;30.13;98048.38;5018037;28;20100;-59
2022/10/18 11:49:26;;;;;;;2.80;2.40;;;;;;;22.15;30.07;98042.56;5020324;28;20131;-62
2022/10/18 11:52:26;;;;;;;3.53;2.65;;;;;;;22.02;29.89;98041.50;5005181;28;20058;-59
2022/10/18 11:55:08;;;;;;;3.38;2.60;;;;;;;21.50;30.51;98037.22;5017991;28;20053;-62
2022/10/18 11:57:57;;;;;;;3.97;2.42;;;;;;;21.66;29.93;98019.72;5023314;28;20166;-59